createdAt,value
2023-01-01T00:02:56.664Z,13.19
2023-01-01T00:08:18.429Z,13.22
2023-01-01T00:13:41.965Z,13.25
2023-01-01T00:19:04.235Z,13.25
2023-01-01T00:24:25.968Z,13.32
2023-01-01T00:29:47.764Z,13.29
2023-01-01T00:35:09.806Z,13.29
2023-01-01T00:40:31.592Z,13.32
2023-01-01T00:45:53.311Z,13.29
2023-01-01T00:51:15.058Z,13.32
2023-01-01T00:56:36.820Z,13.31
2023-01-01T01:01:58.832Z,13.22
2023-01-01T01:07:20.768Z,13.16
2023-01-01T01:12:42.885Z,13.13
2023-01-01T01:18:04.636Z,13.04
2023-01-01T01:23:26.341Z,12.97
2023-01-01T01:28:50.030Z,12.98
2023-01-01T01:34:16.035Z,12.94
2023-01-01T01:39:38.890Z,12.95
2023-01-01T01:45:02.185Z,12.91
2023-01-01T01:50:36.017Z,12.81
2023-01-01T01:56:00.998Z,12.61
2023-01-01T02:01:23.458Z,12.58
2023-01-01T02:06:45.575Z,12.64
2023-01-01T02:12:07.364Z,12.60
2023-01-01T02:17:39.838Z,12.60
2023-01-01T02:23:31.580Z,12.55
2023-01-01T02:29:04.945Z,12.53
2023-01-01T02:34:32.029Z,12.54
2023-01-01T02:39:59.200Z,12.54
2023-01-01T02:45:21.890Z,12.65
2023-01-01T02:50:43.773Z,12.63
2023-01-01T02:56:10.672Z,12.59
2023-01-01T03:01:48.989Z,12.61
2023-01-01T03:07:18.224Z,12.61
2023-01-01T03:12:53.381Z,12.60
2023-01-01T03:18:21.638Z,12.72
2023-01-01T03:23:50.125Z,12.83
2023-01-01T03:29:13.175Z,12.75
2023-01-01T03:34:42.931Z,12.67
2023-01-01T03:40:05.799Z,12.64
2023-01-01T03:45:38.924Z,12.71
2023-01-01T03:51:18.408Z,12.58
2023-01-01T03:56:52.609Z,12.51
2023-01-01T04:02:20.239Z,12.50
2023-01-01T04:13:05.728Z,12.48
2023-01-01T04:18:27.393Z,12.44
2023-01-01T04:23:49.097Z,12.42
2023-01-01T04:29:10.866Z,12.29
2023-01-01T04:34:32.550Z,12.29
2023-01-01T04:39:54.223Z,12.35
2023-01-01T04:45:15.949Z,12.39
2023-01-01T04:50:37.629Z,12.37
2023-01-01T04:56:07.777Z,12.27
2023-01-01T05:01:30.569Z,12.39
2023-01-01T05:06:52.434Z,12.27
2023-01-01T05:12:14.117Z,12.28
2023-01-01T05:17:35.828Z,12.29
2023-01-01T05:22:57.520Z,12.31
2023-01-01T05:28:19.218Z,12.32
2023-01-01T05:33:41.561Z,12.40
2023-01-01T05:39:03.410Z,12.33
2023-01-01T05:44:25.076Z,12.35
2023-01-01T05:49:46.792Z,12.39
2023-01-01T05:55:08.699Z,12.44
2023-01-01T06:00:30.485Z,12.38
2023-01-01T06:05:52.208Z,12.41
2023-01-01T06:11:13.893Z,12.41
2023-01-01T06:16:35.661Z,12.41
2023-01-01T06:21:57.464Z,12.43
2023-01-01T06:27:19.193Z,12.37
2023-01-01T06:32:40.913Z,12.36
2023-01-01T06:38:02.601Z,12.21
2023-01-01T06:43:24.729Z,12.33
2023-01-01T06:48:52.885Z,12.37
2023-01-01T06:54:14.603Z,12.37
2023-01-01T06:59:36.285Z,12.22
2023-01-01T07:04:57.981Z,12.18
2023-01-01T07:10:19.666Z,12.11
2023-01-01T07:15:41.504Z,12.14
2023-01-01T07:21:04.443Z,12.09
2023-01-01T07:26:27.453Z,12.06
2023-01-01T07:31:49.196Z,12.07
2023-01-01T07:37:10.909Z,12.02
2023-01-01T07:42:32.596Z,11.99
2023-01-01T07:47:56.189Z,12.08
2023-01-01T07:53:17.933Z,12.13
2023-01-01T07:58:40.875Z,12.16
2023-01-01T08:04:03.128Z,12.16
2023-01-01T08:09:24.835Z,12.29
2023-01-01T08:14:46.851Z,12.21
2023-01-01T08:20:09.392Z,12.12
2023-01-01T08:25:31.079Z,12.20
2023-01-01T08:30:54.877Z,12.21
2023-01-01T08:36:16.958Z,12.19
2023-01-01T08:41:38.630Z,12.13
2023-01-01T08:47:00.387Z,12.10
2023-01-01T08:52:22.703Z,12.09
2023-01-01T08:57:44.421Z,12.08
2023-01-01T09:03:06.298Z,12.08
2023-01-01T09:08:28.390Z,12.08
2023-01-01T09:13:51.029Z,12.00
2023-01-01T09:19:13.262Z,12.02
2023-01-01T09:24:34.923Z,11.96
2023-01-01T09:29:56.673Z,12.00
2023-01-01T09:35:18.836Z,12.09
2023-01-01T09:40:55.348Z,12.17
2023-01-01T09:46:17.420Z,12.24
2023-01-01T09:51:48.905Z,12.30
2023-01-01T09:57:19.873Z,12.37
2023-01-01T10:02:57.863Z,12.47
2023-01-01T10:08:24.834Z,12.53
2023-01-01T10:13:46.917Z,12.57
2023-01-01T10:19:24.783Z,12.62
2023-01-01T10:24:56.186Z,12.75
2023-01-01T10:30:21.019Z,12.83
2023-01-01T10:35:56.796Z,12.94
2023-01-01T10:41:20.193Z,13.04
2023-01-01T10:46:47.733Z,13.15
2023-01-01T10:52:15.407Z,13.33
2023-01-01T10:57:38.732Z,13.44
2023-01-01T11:03:21.059Z,13.53
2023-01-01T11:08:49.080Z,13.61
2023-01-01T11:14:25.363Z,13.66
2023-01-01T11:19:52.687Z,13.72
2023-01-01T11:25:22.087Z,13.78
2023-01-01T11:31:03.803Z,13.83
2023-01-01T11:36:34.761Z,13.95
2023-01-01T11:41:57.933Z,14.00
2023-01-01T11:47:28.900Z,14.11
2023-01-01T11:52:52.691Z,14.26
2023-01-01T11:58:36.051Z,14.23
2023-01-01T12:04:11.390Z,14.24
2023-01-01T12:09:39.088Z,14.33
2023-01-01T12:15:05.504Z,14.34
2023-01-01T12:20:34.190Z,14.36
2023-01-01T12:26:34.300Z,14.55
2023-01-01T12:32:11.849Z,14.51
2023-01-01T12:37:47.168Z,14.55
2023-01-01T12:43:11.046Z,14.59
2023-01-01T12:48:51.611Z,14.60
2023-01-01T12:54:47.362Z,14.65
2023-01-01T13:00:16.118Z,14.68
2023-01-01T13:05:41.859Z,14.67
2023-01-01T13:11:05.644Z,14.67
2023-01-01T13:16:37.427Z,14.75
2023-01-01T13:22:20.203Z,14.73
2023-01-01T13:28:00.587Z,14.75
2023-01-01T13:33:32.023Z,14.81
2023-01-01T13:38:58.714Z,14.78
2023-01-01T13:44:23.829Z,14.79
2023-01-01T13:50:12.046Z,14.81
2023-01-01T13:55:45.636Z,14.91
2023-01-01T14:01:14.640Z,14.98
2023-01-01T14:06:40.274Z,15.03
2023-01-01T14:12:19.260Z,15.00
2023-01-01T14:17:42.869Z,14.98
2023-01-01T14:23:10.552Z,14.92
2023-01-01T14:28:35.120Z,14.90
2023-01-01T14:33:57.627Z,14.87
2023-01-01T14:39:35.484Z,14.83
2023-01-01T14:44:57.240Z,14.81
2023-01-01T14:50:26.637Z,14.77
2023-01-01T14:55:49.631Z,14.72
2023-01-01T15:01:23.285Z,14.69
2023-01-01T15:06:45.107Z,14.66
2023-01-01T15:12:12.159Z,14.61
2023-01-01T15:17:46.113Z,14.50
2023-01-01T15:23:15.878Z,14.43
2023-01-01T15:28:38.405Z,14.39
2023-01-01T15:34:00.261Z,14.19
2023-01-01T15:39:22.558Z,14.20
2023-01-01T15:44:44.415Z,14.08
2023-01-01T15:50:08.673Z,13.99
2023-01-01T15:55:33.800Z,13.77
2023-01-01T16:00:59.006Z,13.78
2023-01-01T16:06:22.872Z,13.62
2023-01-01T16:11:45.705Z,13.55
2023-01-01T16:17:13.595Z,13.39
2023-01-01T16:22:36.890Z,13.46
2023-01-01T16:27:59.003Z,13.47
2023-01-01T16:33:24.317Z,13.27
2023-01-01T16:38:46.049Z,13.19
2023-01-01T16:44:13.088Z,13.30
2023-01-01T16:49:34.957Z,13.43
2023-01-01T16:54:56.706Z,13.34
2023-01-01T17:00:18.526Z,13.07
2023-01-01T17:05:44.326Z,13.00
2023-01-01T17:11:11.826Z,12.96
2023-01-01T17:16:39.211Z,12.94
2023-01-01T17:22:01.739Z,12.88
2023-01-01T17:27:23.420Z,12.91
2023-01-01T17:32:45.095Z,12.89
2023-01-01T17:38:06.809Z,12.91
2023-01-01T17:43:31.408Z,12.84
2023-01-01T17:48:53.162Z,12.63
2023-01-01T17:54:14.892Z,12.54
2023-01-01T17:59:36.580Z,12.48
2023-01-01T18:04:58.260Z,12.32
2023-01-01T18:10:19.973Z,12.34
2023-01-01T18:15:41.721Z,12.34
2023-01-01T18:21:05.389Z,12.30
2023-01-01T18:26:30.463Z,12.29
2023-01-01T18:31:52.175Z,12.30
2023-01-01T18:37:14.201Z,12.24
2023-01-01T18:42:52.304Z,12.20
2023-01-01T18:48:17.553Z,12.25
2023-01-01T18:53:39.268Z,12.26
2023-01-01T18:59:01.165Z,12.28
2023-01-01T19:04:22.889Z,12.13
2023-01-01T19:09:44.670Z,12.20
2023-01-01T19:15:18.885Z,12.08
2023-01-01T19:20:40.603Z,12.08
2023-01-01T19:26:04.241Z,12.26
2023-01-01T19:31:26.060Z,12.46
2023-01-01T19:36:48.391Z,12.74
2023-01-01T19:42:11.570Z,12.79
2023-01-01T19:47:38.143Z,12.83
2023-01-01T19:53:00.045Z,12.80
2023-01-01T19:58:22.961Z,12.77
2023-01-01T20:04:00.433Z,12.74
2023-01-01T20:09:22.510Z,12.72
2023-01-01T20:14:44.210Z,12.72
2023-01-01T20:20:06.580Z,12.70
2023-01-01T20:25:28.356Z,12.74
2023-01-01T20:30:50.040Z,12.77
2023-01-01T20:36:30.777Z,12.71
2023-01-01T20:41:52.619Z,12.69
2023-01-01T20:47:14.715Z,12.69
2023-01-01T20:52:36.527Z,12.69
2023-01-01T20:57:58.260Z,12.74
2023-01-01T21:03:20.092Z,12.79
2023-01-01T21:08:41.977Z,12.95
2023-01-01T21:14:03.933Z,12.89
2023-01-01T21:19:27.275Z,12.84
2023-01-01T21:24:54.102Z,12.87
2023-01-01T21:30:17.637Z,12.90
2023-01-01T21:35:39.365Z,12.90
2023-01-01T21:41:03.539Z,12.89
2023-01-01T21:46:32.050Z,12.93
2023-01-01T21:52:00.823Z,13.03
2023-01-01T21:57:24.165Z,13.08
2023-01-01T22:02:47.149Z,13.02
2023-01-01T22:08:25.247Z,13.02
2023-01-01T22:13:47.039Z,13.02
2023-01-01T22:19:12.430Z,13.09
2023-01-01T22:24:35.331Z,13.25
2023-01-01T22:30:09.814Z,13.39
2023-01-01T22:35:32.809Z,13.47
2023-01-01T22:40:54.493Z,13.55
2023-01-01T22:46:19.057Z,13.57
2023-01-01T22:51:42.713Z,13.60
2023-01-01T22:57:04.428Z,13.65
2023-01-01T23:02:26.200Z,13.69
2023-01-01T23:07:48.187Z,13.68
2023-01-01T23:13:28.533Z,13.70
2023-01-01T23:18:50.248Z,13.75
2023-01-01T23:24:16.736Z,13.80
2023-01-01T23:29:39.056Z,13.86
2023-01-01T23:35:00.843Z,13.86
2023-01-01T23:40:22.555Z,13.88
2023-01-01T23:45:44.978Z,13.88
2023-01-01T23:51:06.691Z,13.97
2023-01-01T23:56:29.421Z,13.93
